createdAt,value
2019-04-21T00:01:18.260Z,8.77
2019-04-21T00:03:53.895Z,11.60
2019-04-21T00:06:41.127Z,7.53
2019-04-21T00:09:19.215Z,8.37
2019-04-21T00:11:48.234Z,7.67
2019-04-21T00:14:11.341Z,10.13
2019-04-21T00:16:34.771Z,10.03
2019-04-21T00:19:21.629Z,7.77
2019-04-21T00:21:58.128Z,8.00
2019-04-21T00:24:33.676Z,9.33
2019-04-21T00:27:11.181Z,11.37
2019-04-21T00:29:46.897Z,11.33
2019-04-21T00:32:11.468Z,9.33
2019-04-21T00:34:30.159Z,7.40
2019-04-21T00:37:12.104Z,7.73
2019-04-21T00:42:25.187Z,10.67
2019-04-21T00:44:54.222Z,11.53
2019-04-21T00:47:30.643Z,8.97
2019-04-21T00:50:03.099Z,8.83
2019-04-21T00:53:04.723Z,11.30
2019-04-21T00:55:59.422Z,12.63
2019-04-21T00:58:28.607Z,10.70
2019-04-21T01:00:51.074Z,9.57
2019-04-21T01:03:32.740Z,13.73
2019-04-21T01:06:19.103Z,9.17
2019-04-21T01:08:31.106Z,9.07
2019-04-21T01:10:55.375Z,9.17
2019-04-21T01:13:41.193Z,7.13
2019-04-21T01:16:07.270Z,9.03
2019-04-21T01:18:41.318Z,11.93
2019-04-21T01:20:50.554Z,10.00
2019-04-21T01:23:21.362Z,9.60
2019-04-21T01:26:06.864Z,10.67
2019-04-21T01:28:43.887Z,8.90
2019-04-21T01:31:14.925Z,10.60
2019-04-21T01:33:44.720Z,9.57
2019-04-21T01:36:18.118Z,8.67
2019-04-21T01:38:58.988Z,8.87
2019-04-21T01:41:29.603Z,10.20
2019-04-21T01:43:57.819Z,9.80
2019-04-21T01:46:25.621Z,8.23
2019-04-21T01:48:55.409Z,10.53
2019-04-21T01:51:32.119Z,9.60
2019-04-21T01:54:28.525Z,7.67
2019-04-21T01:57:03.388Z,12.13
2019-04-21T01:59:30.551Z,8.40
2019-04-21T02:02:10.718Z,8.10
2019-04-21T02:07:15.164Z,7.93
2019-04-21T02:09:44.369Z,7.87
2019-04-21T02:12:18.850Z,9.27
2019-04-21T02:15:00.425Z,7.40
2019-04-21T02:17:23.753Z,5.53
2019-04-21T02:19:51.833Z,7.47
2019-04-21T02:22:28.976Z,7.47
2019-04-21T02:25:00.959Z,10.87
2019-04-21T02:27:31.038Z,6.33
2019-04-21T02:30:14.595Z,7.43
2019-04-21T02:32:47.992Z,6.77
2019-04-21T02:35:25.524Z,6.93
2019-04-21T02:37:53.535Z,8.13
2019-04-21T02:42:56.023Z,7.13
2019-04-21T02:45:26.830Z,9.50
2019-04-21T02:48:06.277Z,8.40
2019-04-21T02:50:25.941Z,6.93
2019-04-21T03:00:44.933Z,7.20
2019-04-21T03:03:39.116Z,7.80
2019-04-21T03:06:06.097Z,9.53
2019-04-21T03:13:47.297Z,7.97
2019-04-21T03:17:03.454Z,10.87
2019-04-21T03:18:54.255Z,10.13
2019-04-21T03:21:21.598Z,7.63
2019-04-21T03:24:13.404Z,9.33
2019-04-21T03:29:05.690Z,9.83
2019-04-21T03:31:49.791Z,8.60
2019-04-21T03:36:47.749Z,7.23
2019-04-21T03:39:18.395Z,9.03
2019-04-21T03:41:37.771Z,9.93
2019-04-21T03:44:06.570Z,9.90
2019-04-21T03:46:41.448Z,10.13
2019-04-21T03:49:23.079Z,10.57
2019-04-21T03:52:03.893Z,7.30
2019-04-21T03:54:22.289Z,9.00
2019-04-21T03:59:19.711Z,13.27
2019-04-21T04:02:18.903Z,8.63
2019-04-21T04:04:53.576Z,9.03
2019-04-21T04:07:59.250Z,11.00
2019-04-21T04:10:22.065Z,10.03
2019-04-21T04:12:57.219Z,9.47
2019-04-21T04:15:31.452Z,8.33
2019-04-21T04:17:56.426Z,8.77
2019-04-21T04:20:28.086Z,13.83
2019-04-21T04:23:02.304Z,10.80
2019-04-21T04:28:08.563Z,8.67
2019-04-21T04:30:41.983Z,8.60
2019-04-21T04:33:07.879Z,10.63
2019-04-21T04:35:52.865Z,9.77
2019-04-21T04:38:39.271Z,9.13
2019-04-21T04:41:16.614Z,10.27
2019-04-21T04:43:37.148Z,11.30
2019-04-21T04:46:07.201Z,10.87
2019-04-21T04:48:45.218Z,6.80
2019-04-21T04:51:14.433Z,12.07
2019-04-21T04:53:43.930Z,12.67
2019-04-21T04:56:20.758Z,10.33
2019-04-21T05:04:10.321Z,7.00
2019-04-21T05:23:55.696Z,16.53
2019-04-21T05:26:29.950Z,10.73
2019-04-21T05:28:56.564Z,9.20
2019-04-21T05:31:44.681Z,8.17
2019-04-21T05:34:18.994Z,7.40
2019-04-21T05:37:07.192Z,6.90
2019-04-21T05:39:42.338Z,9.37
2019-04-21T05:42:09.072Z,7.23
2019-04-21T05:44:59.875Z,8.60
2019-04-21T05:47:35.479Z,9.33
2019-04-21T05:50:06.413Z,6.50
2019-04-21T05:52:53.620Z,6.97
2019-04-21T05:58:05.670Z,8.20
2019-04-21T06:00:55.983Z,7.90
2019-04-21T06:03:10.426Z,7.57
2019-04-21T06:05:45.362Z,7.97
2019-04-21T06:08:12.913Z,7.80
2019-04-21T06:10:48.780Z,10.07
2019-04-21T06:13:24.403Z,8.17
2019-04-21T06:15:54.654Z,6.00
2019-04-21T06:18:21.700Z,10.43
2019-04-21T06:20:54.734Z,9.87
2019-04-21T06:23:25.733Z,8.13
2019-04-21T06:26:09.443Z,13.37
2019-04-21T06:28:30.536Z,9.27
2019-04-21T06:31:05.958Z,8.50
2019-04-21T06:33:39.471Z,10.20
2019-04-21T06:36:41.417Z,8.00
2019-04-21T06:39:10.003Z,11.30
2019-04-21T06:44:09.541Z,10.80
2019-04-21T06:46:35.187Z,10.17
2019-04-21T06:49:08.068Z,10.33
2019-04-21T06:51:38.602Z,10.90
2019-04-21T06:54:16.097Z,10.33
2019-04-21T06:59:09.724Z,10.93
2019-04-21T07:01:52.802Z,8.23
2019-04-21T07:04:39.143Z,6.63
2019-04-21T07:06:57.413Z,7.23
2019-04-21T07:09:28.559Z,8.43
2019-04-21T07:11:56.498Z,11.63
2019-04-21T07:17:08.015Z,8.57
2019-04-21T07:19:35.297Z,7.30
2019-04-21T07:22:03.313Z,7.57
2019-04-21T07:24:37.293Z,9.47
2019-04-21T07:27:09.534Z,7.60
2019-04-21T07:29:39.513Z,10.07
2019-04-21T07:32:11.771Z,9.23
2019-04-21T07:34:47.629Z,10.20
2019-04-21T07:37:12.551Z,8.80
2019-04-21T07:39:46.560Z,6.70
2019-04-21T07:42:14.710Z,7.77
2019-04-21T07:44:39.466Z,8.63
2019-04-21T07:47:23.066Z,6.13
2019-04-21T07:50:03.394Z,7.63
2019-04-21T07:52:47.022Z,6.63
2019-04-21T07:55:18.660Z,7.23
2019-04-21T07:57:39.022Z,6.33
2019-04-21T08:00:21.053Z,8.43
2019-04-21T08:03:00.428Z,8.13
2019-04-21T08:05:31.333Z,6.80
2019-04-21T08:07:54.221Z,6.47
2019-04-21T08:10:22.507Z,7.93
2019-04-21T08:12:49.414Z,8.87
2019-04-21T08:15:30.032Z,6.70
2019-04-21T08:17:56.636Z,6.90
2019-04-21T08:20:28.446Z,6.90
2019-04-21T08:23:13.182Z,5.17
2019-04-21T08:25:34.874Z,7.97
2019-04-21T08:28:05.465Z,6.10
2019-04-21T08:30:47.795Z,6.33
2019-04-21T08:33:16.248Z,4.90
2019-04-21T08:38:16.519Z,8.43
2019-04-21T08:40:40.951Z,6.37
2019-04-21T08:43:20.835Z,6.50
2019-04-21T08:45:52.750Z,7.40
2019-04-21T08:48:22.791Z,8.27
2019-04-21T08:50:53.964Z,5.60
2019-04-21T08:53:24.720Z,7.23
2019-04-21T08:56:16.458Z,6.10
2019-04-21T08:59:22.196Z,5.13
2019-04-21T09:04:26.163Z,7.17
2019-04-21T09:09:31.534Z,6.37
2019-04-21T09:12:01.701Z,5.80
2019-04-21T09:14:35.490Z,5.87
2019-04-21T09:17:01.665Z,5.63
2019-04-21T09:19:44.296Z,5.03
2019-04-21T09:22:05.771Z,7.67
2019-04-21T09:24:41.266Z,7.47
2019-04-21T09:27:10.046Z,5.50
2019-04-21T09:29:32.541Z,5.97
2019-04-21T09:31:59.463Z,7.10
2019-04-21T09:34:33.254Z,5.50
2019-04-21T09:37:16.453Z,8.27
2019-04-21T09:39:33.730Z,6.30
2019-04-21T09:42:06.546Z,6.20
2019-04-21T09:44:40.477Z,6.73
2019-04-21T09:47:10.380Z,5.10
2019-04-21T09:49:41.896Z,6.73
2019-04-21T09:52:18.561Z,6.70
2019-04-21T09:54:54.801Z,5.17
2019-04-21T09:57:27.651Z,7.87
2019-04-21T09:59:55.852Z,4.23
2019-04-21T10:02:32.878Z,5.80
2019-04-21T10:04:52.746Z,8.17
2019-04-21T10:07:29.904Z,3.90
2019-04-21T10:09:54.902Z,5.83
2019-04-21T10:12:25.620Z,3.40
2019-04-21T10:14:55.896Z,2.50
2019-04-21T10:17:30.364Z,2.90
2019-04-21T10:20:00.802Z,3.55
2019-04-21T10:22:31.100Z,3.57
2019-04-21T10:25:02.855Z,2.53
2019-04-21T10:27:33.298Z,4.10
2019-04-21T10:30:03.780Z,4.55
2019-04-21T10:32:34.457Z,5.03
2019-04-21T10:35:05.546Z,3.02
2019-04-21T10:37:47.274Z,2.30
2019-04-21T10:40:09.554Z,2.85
2019-04-21T10:42:40.437Z,2.65
2019-04-21T10:45:11.212Z,3.45
2019-04-21T10:47:42.950Z,3.37
2019-04-21T10:50:14.184Z,2.92
2019-04-21T10:53:06.921Z,3.10
2019-04-21T10:55:54.287Z,14.13
2019-04-21T10:58:18.656Z,2.87
2019-04-21T11:00:51.560Z,6.33
2019-04-21T11:03:44.745Z,3.95
2019-04-21T11:06:18.907Z,3.27
2019-04-21T11:08:52.391Z,2.60
2019-04-21T11:11:21.773Z,3.20
2019-04-21T11:13:52.637Z,4.00
2019-04-21T11:16:23.529Z,3.35
2019-04-21T11:18:53.816Z,2.42
2019-04-21T11:21:24.944Z,5.58
2019-04-21T11:23:56.452Z,3.60
2019-04-21T11:26:29.767Z,2.98
2019-04-21T11:29:03.145Z,4.47
2019-04-21T11:31:33.535Z,3.22
2019-04-21T11:34:05.028Z,2.40
2019-04-21T11:36:35.388Z,2.55
2019-04-21T11:39:31.583Z,3.42
2019-04-21T11:41:54.051Z,2.50
2019-04-21T11:44:24.837Z,4.53
2019-04-21T11:46:56.360Z,3.17
2019-04-21T11:49:30.220Z,4.92
2019-04-21T11:51:58.835Z,5.03
2019-04-21T11:54:28.996Z,2.72
2019-04-21T11:57:01.817Z,2.60
2019-04-21T11:59:31.157Z,4.62
2019-04-21T12:02:01.580Z,3.05
2019-04-21T12:04:31.840Z,4.05
2019-04-21T12:07:02.078Z,3.83
2019-04-21T12:09:33.342Z,2.72
2019-04-21T12:12:05.257Z,3.62
2019-04-21T12:14:36.399Z,2.70
2019-04-21T12:17:07.935Z,3.65
2019-04-21T12:19:38.733Z,4.83
2019-04-21T12:22:18.210Z,4.92
2019-04-21T12:24:42.899Z,3.58
2019-04-21T12:27:14.023Z,4.22
2019-04-21T12:29:44.247Z,2.70
2019-04-21T12:32:40.035Z,3.72
2019-04-21T12:35:12.181Z,3.35
2019-04-21T12:37:42.821Z,4.62
2019-04-21T12:40:14.428Z,3.20
2019-04-21T12:42:45.520Z,3.65
2019-04-21T12:45:17.306Z,3.40
2019-04-21T12:47:50.328Z,5.35
2019-04-21T12:50:19.854Z,4.95
2019-04-21T12:52:50.031Z,3.22
2019-04-21T12:55:26.165Z,4.95
2019-04-21T12:57:53.198Z,4.67
2019-04-21T13:00:25.248Z,3.47
2019-04-21T13:02:56.073Z,5.33
2019-04-21T13:05:27.476Z,7.10
2019-04-21T13:08:00.115Z,6.55
2019-04-21T13:10:30.691Z,2.95
2019-04-21T13:13:01.794Z,2.98
2019-04-21T13:15:33.539Z,3.37
2019-04-21T13:18:04.637Z,3.72
2019-04-21T13:20:35.938Z,4.37
2019-04-21T13:23:06.182Z,2.72
2019-04-21T13:25:36.536Z,3.20
2019-04-21T13:28:07.048Z,3.30
2019-04-21T13:30:38.094Z,3.87
2019-04-21T13:33:09.206Z,4.95
2019-04-21T13:35:41.221Z,2.50
2019-04-21T13:38:20.022Z,2.47
2019-04-21T13:41:10.464Z,4.12
2019-04-21T13:43:25.230Z,3.70
2019-04-21T13:45:55.627Z,4.62
2019-04-21T13:48:26.486Z,3.75
2019-04-21T13:50:57.321Z,3.17
2019-04-21T13:53:28.515Z,5.35
2019-04-21T13:56:00.305Z,2.92
2019-04-21T13:58:30.651Z,4.25
2019-04-21T14:01:00.999Z,3.98
2019-04-21T14:03:31.440Z,6.05
2019-04-21T14:06:02.518Z,2.50
2019-04-21T14:08:33.465Z,3.45
2019-04-21T14:11:05.026Z,3.12
2019-04-21T14:13:36.455Z,3.33
2019-04-21T14:16:08.126Z,5.75
2019-04-21T14:18:38.887Z,5.78
2019-04-21T14:21:09.229Z,8.58
2019-04-21T14:23:44.565Z,4.65
2019-04-21T14:26:11.981Z,4.00
2019-04-21T14:28:43.010Z,2.65
2019-04-21T14:31:14.461Z,5.47
2019-04-21T14:33:45.870Z,3.60
2019-04-21T14:36:16.791Z,3.20
2019-04-21T14:38:47.063Z,2.87
2019-04-21T14:41:17.874Z,4.45
2019-04-21T14:43:48.123Z,5.33
2019-04-21T14:46:42.821Z,3.65
2019-04-21T14:49:29.097Z,5.90
2019-04-21T14:52:12.937Z,3.62
2019-04-21T14:55:08.927Z,5.97
2019-04-21T14:57:39.329Z,5.17
2019-04-21T15:00:15.461Z,2.50
2019-04-21T15:02:45.721Z,7.20
2019-04-21T15:05:15.926Z,7.65
2019-04-21T15:07:46.181Z,5.78
2019-04-21T15:10:20.624Z,3.02
2019-04-21T15:12:49.713Z,3.67
2019-04-21T15:15:20.230Z,6.03
2019-04-21T15:17:51.548Z,4.85
2019-04-21T15:20:23.382Z,5.03
2019-04-21T15:22:54.486Z,3.58
2019-04-21T15:25:26.055Z,2.98
2019-04-21T15:27:56.936Z,4.33
2019-04-21T15:30:27.153Z,5.08
2019-04-21T15:32:58.118Z,4.62
2019-04-21T15:35:29.003Z,7.22
2019-04-21T15:37:59.997Z,2.67
2019-04-21T15:40:40.746Z,4.10
2019-04-21T15:43:02.467Z,2.87
2019-04-21T15:45:32.882Z,4.17
2019-04-21T15:48:04.196Z,6.47
2019-04-21T15:50:35.684Z,3.42
2019-04-21T15:53:07.732Z,4.85
2019-04-21T15:55:57.308Z,2.90
2019-04-21T15:58:46.393Z,2.70
2019-04-21T16:01:24.884Z,3.47
2019-04-21T16:03:58.307Z,2.92
2019-04-21T16:06:27.718Z,3.05
2019-04-21T16:09:00.881Z,4.85
2019-04-21T16:11:31.484Z,4.72
2019-04-21T16:14:02.023Z,5.03
2019-04-21T16:16:33.827Z,3.40
2019-04-21T16:19:04.276Z,3.75
2019-04-21T16:21:38.312Z,3.05
2019-04-21T16:24:06.860Z,4.95
2019-04-21T16:26:38.437Z,5.45
2019-04-21T16:29:09.089Z,5.67
2019-04-21T16:31:40.355Z,4.45
2019-04-21T16:34:10.702Z,3.65
2019-04-21T16:36:41.350Z,4.15
2019-04-21T16:39:11.628Z,4.67
2019-04-21T16:41:42.513Z,2.77
2019-04-21T16:44:13.399Z,3.58
2019-04-21T16:46:43.761Z,3.42
2019-04-21T16:49:14.026Z,5.05
2019-04-21T16:51:46.352Z,3.22
2019-04-21T16:54:29.051Z,4.05
2019-04-21T16:57:12.022Z,4.30
2019-04-21T16:59:46.576Z,3.45
2019-04-21T17:02:16.906Z,5.80
2019-04-21T17:04:48.485Z,3.60
2019-04-21T17:07:19.951Z,3.25
2019-04-21T17:09:50.687Z,4.40
2019-04-21T17:12:22.766Z,5.60
2019-04-21T17:15:08.010Z,4.92
2019-04-21T17:17:49.670Z,4.47
2019-04-21T17:20:13.904Z,3.17
2019-04-21T17:22:31.405Z,3.20
2019-04-21T17:25:02.639Z,4.50
2019-04-21T17:27:33.382Z,4.55
2019-04-21T17:30:04.346Z,6.03
2019-04-21T17:32:40.098Z,3.85
2019-04-21T17:35:08.057Z,3.35
2019-04-21T17:37:38.387Z,5.45
2019-04-21T17:40:09.406Z,3.77
2019-04-21T17:42:46.521Z,4.17
2019-04-21T17:45:13.300Z,3.90
2019-04-21T17:47:50.705Z,3.95
2019-04-21T17:50:55.726Z,5.17
2019-04-21T17:53:42.888Z,5.67
2019-04-21T17:56:31.744Z,4.60
2019-04-21T17:58:58.473Z,3.00
2019-04-21T18:01:35.316Z,3.27
2019-04-21T18:04:12.689Z,5.40
2019-04-21T18:06:44.314Z,5.17
2019-04-21T18:09:25.523Z,4.35
2019-04-21T18:11:51.073Z,4.47
2019-04-21T18:14:01.754Z,6.15
2019-04-21T18:16:39.239Z,5.87
2019-04-21T18:19:04.705Z,3.42
2019-04-21T18:21:51.388Z,6.20
2019-04-21T18:24:22.432Z,4.55
2019-04-21T18:26:56.587Z,7.10
2019-04-21T18:29:23.466Z,5.00
2019-04-21T18:31:54.601Z,5.10
2019-04-21T18:34:47.826Z,4.53
2019-04-21T18:37:43.019Z,5.10
2019-04-21T18:40:16.756Z,6.87
2019-04-21T18:43:16.028Z,8.18
2019-04-21T18:48:34.449Z,4.35
2019-04-21T18:51:41.425Z,5.65
2019-04-21T18:54:31.488Z,4.97
2019-04-21T18:56:54.970Z,4.80
2019-04-21T18:59:14.114Z,6.03
2019-04-21T19:01:51.533Z,4.63
2019-04-21T19:04:20.448Z,7.30
2019-04-21T19:07:02.933Z,5.47
2019-04-21T19:10:07.055Z,4.35
2019-04-21T19:12:16.486Z,4.67
2019-04-21T19:14:39.830Z,5.27
2019-04-21T19:17:48.558Z,6.00
2019-04-21T19:20:09.004Z,3.60
2019-04-21T19:22:15.257Z,3.13
2019-04-21T19:24:55.605Z,3.70
2019-04-21T19:27:23.814Z,3.97
2019-04-21T19:30:18.932Z,4.33
2019-04-21T19:32:23.925Z,5.40
2019-04-21T19:34:41.319Z,4.90
2019-04-21T19:37:17.113Z,4.20
2019-04-21T19:39:57.910Z,3.30
2019-04-21T19:42:25.771Z,6.53
2019-04-21T19:45:07.692Z,6.00
2019-04-21T19:47:41.587Z,3.90
2019-04-21T19:50:11.192Z,5.67
2019-04-21T19:52:38.076Z,7.40
2019-04-21T19:54:56.699Z,4.67
2019-04-21T19:57:29.170Z,4.53
2019-04-21T20:00:03.781Z,4.20
2019-04-21T20:02:32.238Z,4.20
2019-04-21T20:05:07.928Z,3.67
2019-04-21T20:07:49.496Z,5.27
2019-04-21T20:10:31.400Z,5.57
2019-04-21T20:13:01.180Z,5.87
2019-04-21T20:15:37.454Z,4.73
2019-04-21T20:17:58.541Z,5.87
2019-04-21T20:20:15.614Z,4.03
2019-04-21T20:22:50.508Z,5.57
2019-04-21T20:25:21.081Z,5.63
2019-04-21T20:27:59.097Z,6.07
2019-04-21T20:30:40.779Z,4.83
2019-04-21T20:33:36.969Z,5.57
2019-04-21T20:35:54.802Z,5.33
2019-04-21T20:38:12.724Z,3.60
2019-04-21T20:40:41.245Z,8.20
2019-04-21T20:43:25.496Z,3.80
2019-04-21T20:45:56.310Z,4.13
2019-04-21T20:48:13.972Z,5.27
2019-04-21T20:50:57.258Z,4.73
2019-04-21T20:53:27.391Z,7.57
2019-04-21T20:55:57.483Z,5.57
2019-04-21T20:58:28.467Z,6.90
2019-04-21T21:01:22.530Z,5.03
2019-04-21T21:03:35.233Z,7.50
2019-04-21T21:06:01.447Z,4.37
2019-04-21T21:08:40.317Z,7.03
2019-04-21T21:11:07.073Z,6.80
2019-04-21T21:13:44.749Z,7.03
2019-04-21T21:16:35.149Z,4.70
2019-04-21T21:19:08.427Z,5.83
2019-04-21T21:21:15.296Z,6.75
2019-04-21T21:23:49.678Z,4.87
2019-04-21T21:26:25.790Z,7.90
2019-04-21T21:28:49.919Z,6.13
2019-04-21T21:31:30.703Z,12.83
2019-04-21T21:34:02.084Z,7.30
2019-04-21T21:36:33.844Z,8.43
2019-04-21T21:39:01.278Z,6.40
2019-04-21T21:41:24.386Z,7.53
2019-04-21T21:43:58.108Z,7.97
2019-04-21T21:46:38.340Z,7.40
2019-04-21T21:49:03.074Z,8.70
2019-04-21T21:51:42.234Z,8.13
2019-04-21T21:53:57.077Z,7.90
2019-04-21T21:56:28.766Z,8.77
2019-04-21T21:59:01.252Z,7.40
2019-04-21T22:01:37.948Z,6.60
2019-04-21T22:04:10.998Z,7.13
2019-04-21T22:06:42.117Z,8.97
2019-04-21T22:09:10.330Z,7.63
2019-04-21T22:11:42.073Z,5.83
2019-04-21T22:14:22.944Z,5.40
2019-04-21T22:17:00.989Z,7.73
2019-04-21T22:19:36.621Z,4.20
2019-04-21T22:22:04.161Z,6.60
2019-04-21T22:24:35.151Z,8.87
2019-04-21T22:26:52.669Z,9.37
2019-04-21T22:29:23.494Z,7.67
2019-04-21T22:32:04.311Z,5.67
2019-04-21T22:34:31.410Z,7.80
2019-04-21T22:37:16.666Z,8.70
2019-04-21T22:39:49.651Z,7.93
2019-04-21T22:42:11.431Z,8.13
2019-04-21T22:44:34.422Z,7.53
2019-04-21T22:47:12.102Z,7.57
2019-04-21T22:49:36.919Z,12.07
2019-04-21T22:52:11.090Z,7.17
2019-04-21T22:54:42.796Z,8.23
2019-04-21T22:57:16.605Z,4.97
2019-04-21T22:59:46.346Z,7.23
2019-04-21T23:02:21.034Z,6.40
2019-04-21T23:04:51.381Z,5.57
2019-04-21T23:07:22.135Z,7.33
2019-04-21T23:09:51.457Z,5.83
2019-04-21T23:12:28.079Z,7.80
2019-04-21T23:15:03.443Z,5.83
2019-04-21T23:17:46.584Z,7.03
2019-04-21T23:20:17.639Z,9.63
2019-04-21T23:22:58.366Z,7.63
2019-04-21T23:25:18.162Z,7.17
2019-04-21T23:27:53.903Z,6.20
2019-04-21T23:30:33.817Z,7.17
2019-04-21T23:32:48.819Z,6.73
2019-04-21T23:35:18.346Z,4.83
2019-04-21T23:37:50.963Z,7.43
2019-04-21T23:40:18.054Z,7.33
2019-04-21T23:42:47.154Z,8.17
2019-04-21T23:45:18.381Z,4.93
2019-04-21T23:48:01.921Z,8.63
2019-04-21T23:50:34.079Z,7.93
2019-04-21T23:52:53.477Z,4.10
2019-04-21T23:55:23.672Z,5.83
2019-04-21T23:58:04.942Z,5.80
